地図

経路データ

SID SEASON NUMBER BASIN SUBBASIN NAME ISO_TIME NATURE LAT LON WMO_WIND WMO_PRES WMO_AGENCY TRACK_TYPE DIST2LAND LANDFALL IFLAG USA_AGENCY USA_ATCF_ID USA_LAT USA_LON USA_RECORD USA_STATUS USA_WIND USA_PRES USA_SSHS USA_R34_NE USA_R34_SE USA_R34_SW USA_R34_NW USA_R50_NE USA_R50_SE USA_R50_SW USA_R50_NW USA_R64_NE USA_R64_SE USA_R64_SW USA_R64_NW USA_POCI USA_ROCI USA_RMW USA_EYE TOKYO_LAT TOKYO_LON TOKYO_GRADE TOKYO_WIND TOKYO_PRES TOKYO_R50_DIR TOKYO_R50_LONG TOKYO_R50_SHORT TOKYO_R30_DIR TOKYO_R30_LONG TOKYO_R30_SHORT TOKYO_LAND CMA_LAT CMA_LON CMA_CAT CMA_WIND CMA_PRES HKO_LAT HKO_LON HKO_CAT HKO_WIND HKO_PRES NEWDELHI_LAT NEWDELHI_LON NEWDELHI_GRADE NEWDELHI_WIND NEWDELHI_PRES NEWDELHI_CI NEWDELHI_DP NEWDELHI_POCI REUNION_LAT REUNION_LON REUNION_TYPE REUNION_WIND REUNION_PRES REUNION_TNUM REUNION_CI REUNION_RMW REUNION_R34_NE REUNION_R34_SE REUNION_R34_SW REUNION_R34_NW REUNION_R50_NE REUNION_R50_SE REUNION_R50_SW REUNION_R50_NW REUNION_R64_NE REUNION_R64_SE REUNION_R64_SW REUNION_R64_NW BOM_LAT BOM_LON BOM_TYPE BOM_WIND BOM_PRES BOM_TNUM BOM_CI BOM_RMW BOM_R34_NE BOM_R34_SE BOM_R34_SW BOM_R34_NW BOM_R50_NE BOM_R50_SE BOM_R50_SW BOM_R50_NW BOM_R64_NE BOM_R64_SE BOM_R64_SW BOM_R64_NW BOM_ROCI BOM_POCI BOM_EYE BOM_POS_METHOD BOM_PRES_METHOD NADI_LAT NADI_LON NADI_CAT NADI_WIND NADI_PRES WELLINGTON_LAT WELLINGTON_LON WELLINGTON_WIND WELLINGTON_PRES DS824_LAT DS824_LON DS824_STAGE DS824_WIND DS824_PRES TD9636_LAT TD9636_LON TD9636_STAGE TD9636_WIND TD9636_PRES TD9635_LAT TD9635_LON TD9635_WIND TD9635_PRES TD9635_ROCI NEUMANN_LAT NEUMANN_LON NEUMANN_CLASS NEUMANN_WIND NEUMANN_PRES MLC_LAT MLC_LON MLC_CLASS MLC_WIND MLC_PRES USA_GUST BOM_GUST BOM_GUST_PER REUNION_GUST REUNION_GUST_PER USA_SEAHGT USA_SEARAD_NE USA_SEARAD_SE USA_SEARAD_SW USA_SEARAD_NW STORM_SPEED STORM_DIR
1997229N19242 1997 67 EP MM IGNACIO 1997-08-17 00:00:00 TS 18.7000 -117.900 25 1008 hurdat_epa main 899 887 O_____________ hurdat_epa EP111997 18.7000 -117.900 TD 25 1008 -1 12 320
1997229N19242 1997 67 EP MM IGNACIO 1997-08-17 03:00:00 TS 19.1602 -118.309 main 886 885 P_____________ EP111997 19.1602 -118.309 TD 27 1007 -1 12 320
1997229N19242 1997 67 EP MM IGNACIO 1997-08-17 06:00:00 TS 19.6000 -118.700 30 1006 hurdat_epa main 885 879 O_____________ hurdat_epa EP111997 19.6000 -118.700 TD 30 1006 -1 11 320
1997229N19242 1997 67 EP MM IGNACIO 1997-08-17 09:00:00 TS 20.0074 -119.058 main 888 882 P_____________ EP111997 20.0074 -119.058 TD 32 1005 -1 10 321
1997229N19242 1997 67 EP MM IGNACIO 1997-08-17 12:00:00 TS 20.4000 -119.400 35 1005 hurdat_epa main 887 883 O_____________ hurdat_epa EP111997 20.4000 -119.400 TS 35 1005 0 10 320
1997229N19242 1997 67 EP MM IGNACIO 1997-08-17 15:00:00 TS 20.7925 -119.758 main 897 884 P_____________ EP111997 20.7925 -119.758 TS 35 1005 0 10 321
1997229N19242 1997 67 EP MM IGNACIO 1997-08-17 18:00:00 TS 21.2000 -120.100 35 1006 hurdat_epa main 884 871 O_____________ hurdat_epa EP111997 21.2000 -120.100 TS 35 1006 0 10 324
1997229N19242 1997 67 EP MM IGNACIO 1997-08-17 21:00:00 TS 21.6274 -120.415 main 871 849 P_____________ EP111997 21.6274 -120.415 TS 35 1006 0 11 328
1997229N19242 1997 67 EP MM IGNACIO 1997-08-18 00:00:00 TS 22.1000 -120.700 35 1006 hurdat_epa main 849 822 O_____________ hurdat_epa EP111997 22.1000 -120.700 TS 35 1006 0 11 333
1997229N19242 1997 67 EP MM IGNACIO 1997-08-18 03:00:00 TS 22.6200 -120.965 main 829 799 P_____________ EP111997 22.6200 -120.965 TS 32 1006 -1 12 337
1997229N19242 1997 67 EP MM IGNACIO 1997-08-18 06:00:00 TS 23.2000 -121.200 30 1007 hurdat_epa main 799 774 O_____________ hurdat_epa EP111997 23.2000 -121.200 TD 30 1007 -1 13 341
1997229N19242 1997 67 EP MM IGNACIO 1997-08-18 09:00:00 TS 23.8275 -121.423 main 774 749 P_____________ EP111997 23.8275 -121.423 TD 30 1007 -1 14 344
1997229N19242 1997 67 EP MM IGNACIO 1997-08-18 12:00:00 TS 24.5000 -121.600 30 1008 hurdat_epa main 749 722 O_____________ hurdat_epa EP111997 24.5000 -121.600 TD 30 1008 -1 14 349
1997229N19242 1997 67 EP MM IGNACIO 1997-08-18 15:00:00 TS 25.2000 -121.730 main 722 703 P_____________ EP111997 25.2000 -121.730 TD 27 1008 -1 14 353
1997229N19242 1997 67 EP MM IGNACIO 1997-08-18 18:00:00 TS 25.9000 -121.800 25 1008 hurdat_epa main 703 685 O_____________ hurdat_epa EP111997 25.9000 -121.800 TD 25 1008 -1 14 357
1997229N19242 1997 67 EP MM IGNACIO 1997-08-18 21:00:00 TS 26.5500 -121.808 main 685 658 P_____________ EP111997 26.5500 -121.808 TD 25 1008 -1 13 1
1997229N19242 1997 67 EP MM IGNACIO 1997-08-19 00:00:00 TS 27.2000 -121.800 25 1009 hurdat_epa main 658 628 O_____________ hurdat_epa EP111997 27.2000 -121.800 TD 25 1009 -1 13 359
1997229N19242 1997 67 EP MM IGNACIO 1997-08-19 03:00:00 TS 27.8925 -121.857 main 633 601 P_____________ EP111997 27.8925 -121.857 TD 25 1009 -1 14 356
1997229N19242 1997 67 EP MM IGNACIO 1997-08-19 06:00:00 TS 28.6000 -121.900 25 1009 hurdat_epa main 601 565 O_____________ hurdat_epa EP111997 28.6000 -121.900 TD 25 1009 -1 14 0
1997229N19242 1997 67 EP MM IGNACIO 1997-08-19 09:00:00 TS 29.2775 -121.865 main 559 505 P_____________ EP111997 29.2775 -121.865 TD 25 1009 -1 14 4
1997229N19242 1997 67 EP MM IGNACIO 1997-08-19 12:00:00 ET 30.0000 -121.800 25 1010 hurdat_epa main 505 419 O_____________ hurdat_epa EP111997 30.0000 -121.800 EX 25 1010 -4 16 4
1997229N19242 1997 67 EP MM IGNACIO 1997-08-19 15:00:00 ET 30.8350 -121.750 main 416 321 P_____________ EP111997 30.8350 -121.750 EX 22 1010 -4 17 3
1997229N19242 1997 67 EP MM IGNACIO 1997-08-19 18:00:00 ET 31.7000 -121.700 20 1010 hurdat_epa main 321 239 O_____________ hurdat_epa EP111997 31.7000 -121.700 EX 20 1010 -4 17 3
1997229N19242 1997 67 EP MM IGNACIO 1997-08-19 21:00:00 ET 32.5000 -121.650 main 235 159 P_____________ EP111997 32.5000 -121.650 EX 20 1010 -4 16 3
1997229N19242 1997 67 EP MM IGNACIO 1997-08-20 00:00:00 ET 33.3000 -121.600 20 1010 hurdat_epa main 159 106 O_____________ hurdat_epa EP111997 33.3000 -121.600 EX 20 1010 -4 16 3
1997229N19242 1997 67 EP MM IGNACIO 1997-08-20 03:00:00 ET 34.1375 -121.550 main 106 58 P_____________ EP111997 34.1375 -121.550 EX 20 1011 -4 17 3
1997229N19242 1997 67 EP MM IGNACIO 1997-08-20 06:00:00 ET 35.0000 -121.500 20 1012 hurdat_epa main 58 O_____________ hurdat_epa EP111997 35.0000 -121.500 EX 20 1012 -4 17 2

IBTrACS Databaseについて

本データベースは、米国NOAAが公開する1842年以降の世界の熱帯低気圧のベストトラックデータアーカイブInternational Best Track Archive for Climate Stewardship (IBTrACS)を、ウェブで閲覧しやすい形式に変換したものです。

最終更新日:2021-11-26